Alamogordo, New Mexico
Current Conditions -  °F | °C
As of 7:58 PM on Monday 20 Oct 2014 (Local Time) from KHMN Reporting Station
Broken Clouds Broken Clouds  
Wind Chill: 60°   Ceiling: 11000
Heat Index: 60°   Visibility: 10mi
Dew Point: 60°   Wind: 2mph
Humidity: 100%   Direction: 20°NNE
Pressure: 30.08"   Gusts: NA
Location:  32.9°N, 105.96°W
Report Text: KHMN 210158Z AUTO 02002KT 10SM BKN110 16/16 A3008 RMK AO2 DZB0101E0119 SLP145 P0000 T01580158 $
Loading
Personal Weather Stations






























Interactive Weather Map
Tropical Storm Tracking
New forecast layout! Learn more

10-Day Weather Forecast

Advertisements
Track Severe Weather on mobile